sensor_id;sensor_type;location;lat;lon;timestamp;P1;durP1;ratioP1;P2;durP2;ratioP2
45358;SDS011;31096;49.292;8.710;2022-12-18T00:01:21;20.10;;;10.80;;
45358;SDS011;31096;49.292;8.710;2022-12-18T00:06:15;19.92;;;10.70;;
45358;SDS011;31096;49.292;8.710;2022-12-18T00:11:07;16.30;;;9.50;;
45358;SDS011;31096;49.292;8.710;2022-12-18T00:16:03;20.98;;;9.23;;
45358;SDS011;31096;49.292;8.710;2022-12-18T00:21:00;14.45;;;7.97;;
45358;SDS011;31096;49.292;8.710;2022-12-18T00:25:54;20.20;;;9.70;;
45358;SDS011;31096;49.292;8.710;2022-12-18T00:30:45;19.27;;;10.98;;
45358;SDS011;31096;49.292;8.710;2022-12-18T00:35:35;19.13;;;10.07;;
45358;SDS011;31096;49.292;8.710;2022-12-18T00:40:26;17.13;;;9.27;;
45358;SDS011;31096;49.292;8.710;2022-12-18T00:45:17;18.98;;;9.43;;
45358;SDS011;31096;49.292;8.710;2022-12-18T00:50:07;15.40;;;9.33;;
45358;SDS011;31096;49.292;8.710;2022-12-18T00:54:59;13.65;;;6.85;;
45358;SDS011;31096;49.292;8.710;2022-12-18T00:59:49;15.67;;;7.60;;
45358;SDS011;31096;49.292;8.710;2022-12-18T01:04:40;15.03;;;9.37;;
45358;SDS011;31096;49.292;8.710;2022-12-18T01:09:31;12.13;;;8.13;;
45358;SDS011;31096;49.292;8.710;2022-12-18T01:14:21;16.23;;;9.40;;
45358;SDS011;31096;49.292;8.710;2022-12-18T01:19:12;14.43;;;7.90;;
45358;SDS011;31096;49.292;8.710;2022-12-18T01:24:03;13.20;;;7.37;;
45358;SDS011;31096;49.292;8.710;2022-12-18T01:28:55;16.15;;;8.70;;
45358;SDS011;31096;49.292;8.710;2022-12-18T01:33:46;15.63;;;8.83;;
45358;SDS011;31096;49.292;8.710;2022-12-18T01:38:37;13.73;;;8.20;;
45358;SDS011;31096;49.292;8.710;2022-12-18T01:43:41;15.70;;;9.27;;
45358;SDS011;31096;49.292;8.710;2022-12-18T01:48:40;17.87;;;9.47;;
45358;SDS011;31096;49.292;8.710;2022-12-18T01:53:31;15.32;;;8.77;;
45358;SDS011;31096;49.292;8.710;2022-12-18T02:03:53;13.02;;;7.13;;
45358;SDS011;31096;49.292;8.710;2022-12-18T02:08:57;13.93;;;7.63;;
45358;SDS011;31096;49.292;8.710;2022-12-18T02:19:47;14.03;;;6.60;;
45358;SDS011;31096;49.292;8.710;2022-12-18T02:25:03;14.70;;;7.50;;
45358;SDS011;31096;49.292;8.710;2022-12-18T02:30:12;13.90;;;7.93;;
45358;SDS011;31096;49.292;8.710;2022-12-18T02:35:04;13.57;;;7.50;;
45358;SDS011;31096;49.292;8.710;2022-12-18T02:40:02;14.48;;;8.98;;
45358;SDS011;31096;49.292;8.710;2022-12-18T02:44:54;15.52;;;8.48;;
45358;SDS011;31096;49.292;8.710;2022-12-18T02:49:49;13.57;;;8.20;;
45358;SDS011;31096;49.292;8.710;2022-12-18T03:00:08;14.93;;;7.70;;
45358;SDS011;31096;49.292;8.710;2022-12-18T03:05:14;14.88;;;7.10;;
45358;SDS011;31096;49.292;8.710;2022-12-18T03:10:21;13.05;;;6.82;;
45358;SDS011;31096;49.292;8.710;2022-12-18T03:15:25;11.33;;;7.20;;
45358;SDS011;31096;49.292;8.710;2022-12-18T03:20:21;14.48;;;7.65;;
45358;SDS011;31096;49.292;8.710;2022-12-18T03:25:13;10.90;;;6.70;;
45358;SDS011;31096;49.292;8.710;2022-12-18T03:30:05;13.82;;;6.95;;
45358;SDS011;31096;49.292;8.710;2022-12-18T03:35:00;9.82;;;6.50;;
45358;SDS011;31096;49.292;8.710;2022-12-18T03:39:54;15.43;;;8.23;;
45358;SDS011;31096;49.292;8.710;2022-12-18T03:55:20;15.18;;;8.57;;
45358;SDS011;31096;49.292;8.710;2022-12-18T04:00:13;12.90;;;6.90;;
45358;SDS011;31096;49.292;8.710;2022-12-18T04:05:05;12.60;;;7.28;;
45358;SDS011;31096;49.292;8.710;2022-12-18T04:09:58;12.02;;;6.70;;
45358;SDS011;31096;49.292;8.710;2022-12-18T04:14:49;10.10;;;5.87;;
45358;SDS011;31096;49.292;8.710;2022-12-18T04:19:40;12.40;;;5.90;;
45358;SDS011;31096;49.292;8.710;2022-12-18T04:24:30;11.75;;;7.28;;
45358;SDS011;31096;49.292;8.710;2022-12-18T04:29:21;10.33;;;6.10;;
45358;SDS011;31096;49.292;8.710;2022-12-18T04:34:12;15.20;;;8.53;;
45358;SDS011;31096;49.292;8.710;2022-12-18T04:39:02;10.83;;;6.83;;
45358;SDS011;31096;49.292;8.710;2022-12-18T04:43:53;12.20;;;6.97;;
45358;SDS011;31096;49.292;8.710;2022-12-18T04:48:45;12.67;;;7.47;;
45358;SDS011;31096;49.292;8.710;2022-12-18T04:53:35;14.52;;;8.38;;
45358;SDS011;31096;49.292;8.710;2022-12-18T04:58:26;11.27;;;7.28;;
45358;SDS011;31096;49.292;8.710;2022-12-18T05:03:17;12.83;;;7.60;;
45358;SDS011;31096;49.292;8.710;2022-12-18T05:08:07;13.33;;;5.83;;
45358;SDS011;31096;49.292;8.710;2022-12-18T05:12:58;13.50;;;7.63;;
45358;SDS011;31096;49.292;8.710;2022-12-18T05:17:48;14.02;;;7.97;;
45358;SDS011;31096;49.292;8.710;2022-12-18T05:22:39;12.77;;;7.50;;
45358;SDS011;31096;49.292;8.710;2022-12-18T05:27:30;13.20;;;8.63;;
45358;SDS011;31096;49.292;8.710;2022-12-18T05:32:20;14.00;;;7.63;;
45358;SDS011;31096;49.292;8.710;2022-12-18T05:37:11;15.67;;;9.07;;
45358;SDS011;31096;49.292;8.710;2022-12-18T05:42:01;16.58;;;8.48;;
45358;SDS011;31096;49.292;8.710;2022-12-18T05:46:52;17.00;;;8.97;;
45358;SDS011;31096;49.292;8.710;2022-12-18T05:51:43;14.02;;;8.00;;
45358;SDS011;31096;49.292;8.710;2022-12-18T05:56:34;12.38;;;7.45;;
45358;SDS011;31096;49.292;8.710;2022-12-18T06:01:25;20.07;;;10.30;;
45358;SDS011;31096;49.292;8.710;2022-12-18T06:06:18;17.67;;;9.65;;
45358;SDS011;31096;49.292;8.710;2022-12-18T06:11:16;15.30;;;7.67;;
45358;SDS011;31096;49.292;8.710;2022-12-18T06:16:09;14.75;;;8.40;;
45358;SDS011;31096;49.292;8.710;2022-12-18T06:21:00;12.30;;;7.73;;
45358;SDS011;31096;49.292;8.710;2022-12-18T06:25:51;11.32;;;7.30;;
45358;SDS011;31096;49.292;8.710;2022-12-18T06:30:46;14.77;;;8.23;;
45358;SDS011;31096;49.292;8.710;2022-12-18T06:35:38;16.42;;;9.35;;
45358;SDS011;31096;49.292;8.710;2022-12-18T06:40:29;13.95;;;8.30;;
45358;SDS011;31096;49.292;8.710;2022-12-18T06:45:19;14.50;;;7.85;;
45358;SDS011;31096;49.292;8.710;2022-12-18T06:50:10;21.73;;;9.40;;
45358;SDS011;31096;49.292;8.710;2022-12-18T06:55:02;19.80;;;10.10;;
45358;SDS011;31096;49.292;8.710;2022-12-18T06:59:53;16.70;;;8.90;;
45358;SDS011;31096;49.292;8.710;2022-12-18T07:04:44;12.43;;;7.55;;
45358;SDS011;31096;49.292;8.710;2022-12-18T07:09:34;14.67;;;7.87;;
45358;SDS011;31096;49.292;8.710;2022-12-18T07:14:25;12.67;;;7.67;;
45358;SDS011;31096;49.292;8.710;2022-12-18T07:19:16;10.75;;;7.60;;
45358;SDS011;31096;49.292;8.710;2022-12-18T07:24:07;15.37;;;8.80;;
45358;SDS011;31096;49.292;8.710;2022-12-18T07:28:57;14.43;;;7.40;;
45358;SDS011;31096;49.292;8.710;2022-12-18T07:33:48;12.13;;;7.68;;
45358;SDS011;31096;49.292;8.710;2022-12-18T07:38:40;19.23;;;8.80;;
45358;SDS011;31096;49.292;8.710;2022-12-18T07:43:31;12.40;;;5.95;;
45358;SDS011;31096;49.292;8.710;2022-12-18T07:48:22;14.50;;;7.53;;
45358;SDS011;31096;49.292;8.710;2022-12-18T07:53:13;17.17;;;8.23;;
45358;SDS011;31096;49.292;8.710;2022-12-18T07:58:04;18.10;;;8.57;;
45358;SDS011;31096;49.292;8.710;2022-12-18T08:02:55;17.80;;;8.48;;
45358;SDS011;31096;49.292;8.710;2022-12-18T08:07:46;13.17;;;7.00;;
45358;SDS011;31096;49.292;8.710;2022-12-18T08:12:36;15.13;;;7.75;;
45358;SDS011;31096;49.292;8.710;2022-12-18T08:17:27;19.27;;;9.30;;
45358;SDS011;31096;49.292;8.710;2022-12-18T08:22:18;17.43;;;10.00;;
45358;SDS011;31096;49.292;8.710;2022-12-18T08:27:08;14.38;;;8.30;;
45358;SDS011;31096;49.292;8.710;2022-12-18T08:31:59;17.10;;;9.00;;
45358;SDS011;31096;49.292;8.710;2022-12-18T08:36:50;14.73;;;8.97;;
45358;SDS011;31096;49.292;8.710;2022-12-18T08:41:40;18.37;;;10.27;;
45358;SDS011;31096;49.292;8.710;2022-12-18T08:46:32;19.57;;;9.67;;
45358;SDS011;31096;49.292;8.710;2022-12-18T08:51:26;19.00;;;9.90;;
45358;SDS011;31096;49.292;8.710;2022-12-18T08:56:17;13.77;;;7.50;;
45358;SDS011;31096;49.292;8.710;2022-12-18T09:01:09;15.60;;;8.10;;
45358;SDS011;31096;49.292;8.710;2022-12-18T09:06:01;15.97;;;8.73;;
45358;SDS011;31096;49.292;8.710;2022-12-18T09:10:52;15.02;;;8.55;;
45358;SDS011;31096;49.292;8.710;2022-12-18T09:15:53;19.83;;;8.53;;
45358;SDS011;31096;49.292;8.710;2022-12-18T09:20:45;15.80;;;7.85;;
45358;SDS011;31096;49.292;8.710;2022-12-18T09:25:36;18.40;;;8.57;;
45358;SDS011;31096;49.292;8.710;2022-12-18T09:30:27;19.38;;;9.15;;
45358;SDS011;31096;49.292;8.710;2022-12-18T09:35:18;21.90;;;10.87;;
45358;SDS011;31096;49.292;8.710;2022-12-18T09:40:13;21.30;;;10.75;;
45358;SDS011;31096;49.292;8.710;2022-12-18T09:45:07;23.73;;;9.57;;
45358;SDS011;31096;49.292;8.710;2022-12-18T09:50:05;22.50;;;10.70;;
45358;SDS011;31096;49.292;8.710;2022-12-18T09:55:28;24.10;;;11.63;;
45358;SDS011;31096;49.292;8.710;2022-12-18T10:00:28;21.67;;;9.43;;
45358;SDS011;31096;49.292;8.710;2022-12-18T10:05:34;28.80;;;11.43;;
45358;SDS011;31096;49.292;8.710;2022-12-18T10:10:53;20.23;;;9.38;;
45358;SDS011;31096;49.292;8.710;2022-12-18T10:15:54;26.90;;;12.35;;
45358;SDS011;31096;49.292;8.710;2022-12-18T10:21:00;26.48;;;11.05;;
45358;SDS011;31096;49.292;8.710;2022-12-18T10:26:04;30.88;;;13.20;;
45358;SDS011;31096;49.292;8.710;2022-12-18T10:30:57;24.57;;;10.97;;
45358;SDS011;31096;49.292;8.710;2022-12-18T10:35:52;25.55;;;10.50;;
45358;SDS011;31096;49.292;8.710;2022-12-18T10:45:49;30.42;;;12.23;;
45358;SDS011;31096;49.292;8.710;2022-12-18T10:50:55;20.75;;;10.80;;
45358;SDS011;31096;49.292;8.710;2022-12-18T10:55:47;22.57;;;9.67;;
45358;SDS011;31096;49.292;8.710;2022-12-18T11:00:38;23.92;;;12.02;;
45358;SDS011;31096;49.292;8.710;2022-12-18T11:05:30;21.03;;;9.83;;
45358;SDS011;31096;49.292;8.710;2022-12-18T11:10:25;24.20;;;10.38;;
45358;SDS011;31096;49.292;8.710;2022-12-18T11:15:26;23.43;;;11.80;;
45358;SDS011;31096;49.292;8.710;2022-12-18T11:20:25;22.40;;;10.95;;
45358;SDS011;31096;49.292;8.710;2022-12-18T11:25:19;20.23;;;9.80;;
45358;SDS011;31096;49.292;8.710;2022-12-18T11:35:20;22.23;;;10.23;;
45358;SDS011;31096;49.292;8.710;2022-12-18T11:40:36;26.30;;;13.07;;
45358;SDS011;31096;49.292;8.710;2022-12-18T11:45:33;23.33;;;11.50;;
45358;SDS011;31096;49.292;8.710;2022-12-18T12:11:58;22.98;;;11.48;;
45358;SDS011;31096;49.292;8.710;2022-12-18T12:16:59;27.15;;;12.13;;
45358;SDS011;31096;49.292;8.710;2022-12-18T12:27:30;25.45;;;11.63;;
45358;SDS011;31096;49.292;8.710;2022-12-18T12:43:22;28.05;;;11.93;;
45358;SDS011;31096;49.292;8.710;2022-12-18T12:53:40;25.85;;;10.85;;
45358;SDS011;31096;49.292;8.710;2022-12-18T12:58:54;25.03;;;10.27;;
45358;SDS011;31096;49.292;8.710;2022-12-18T13:09:31;25.58;;;11.25;;
45358;SDS011;31096;49.292;8.710;2022-12-18T13:14:33;31.37;;;13.07;;
45358;SDS011;31096;49.292;8.710;2022-12-18T13:19:29;24.95;;;11.05;;
45358;SDS011;31096;49.292;8.710;2022-12-18T13:24:27;28.50;;;11.27;;
45358;SDS011;31096;49.292;8.710;2022-12-18T13:34:34;25.67;;;10.80;;
45358;SDS011;31096;49.292;8.710;2022-12-18T13:39:34;27.17;;;11.40;;
45358;SDS011;31096;49.292;8.710;2022-12-18T13:44:27;21.25;;;8.48;;
45358;SDS011;31096;49.292;8.710;2022-12-18T13:49:38;28.17;;;11.32;;
45358;SDS011;31096;49.292;8.710;2022-12-18T13:54:35;24.92;;;9.90;;
45358;SDS011;31096;49.292;8.710;2022-12-18T13:59:34;30.80;;;11.93;;
45358;SDS011;31096;49.292;8.710;2022-12-18T14:04:28;26.63;;;11.40;;
45358;SDS011;31096;49.292;8.710;2022-12-18T14:09:23;24.10;;;10.23;;
45358;SDS011;31096;49.292;8.710;2022-12-18T14:14:17;20.58;;;8.48;;
45358;SDS011;31096;49.292;8.710;2022-12-18T14:19:11;27.27;;;11.40;;
45358;SDS011;31096;49.292;8.710;2022-12-18T14:24:11;24.53;;;10.23;;
45358;SDS011;31096;49.292;8.710;2022-12-18T14:29:27;23.85;;;9.90;;
45358;SDS011;31096;49.292;8.710;2022-12-18T14:34:20;28.83;;;11.43;;
45358;SDS011;31096;49.292;8.710;2022-12-18T14:39:17;20.90;;;9.65;;
45358;SDS011;31096;49.292;8.710;2022-12-18T14:44:10;26.77;;;11.23;;
45358;SDS011;31096;49.292;8.710;2022-12-18T14:49:47;21.90;;;9.13;;
45358;SDS011;31096;49.292;8.710;2022-12-18T14:54:16;25.42;;;10.32;;
45358;SDS011;31096;49.292;8.710;2022-12-18T14:59:15;25.35;;;9.77;;
45358;SDS011;31096;49.292;8.710;2022-12-18T15:04:28;22.70;;;9.82;;
45358;SDS011;31096;49.292;8.710;2022-12-18T15:09:29;26.77;;;12.27;;
45358;SDS011;31096;49.292;8.710;2022-12-18T15:19:21;24.23;;;10.82;;
45358;SDS011;31096;49.292;8.710;2022-12-18T15:24:20;21.47;;;8.73;;
45358;SDS011;31096;49.292;8.710;2022-12-18T15:29:18;20.63;;;9.70;;
45358;SDS011;31096;49.292;8.710;2022-12-18T15:34:19;22.90;;;9.63;;
45358;SDS011;31096;49.292;8.710;2022-12-18T15:39:11;23.20;;;10.33;;
45358;SDS011;31096;49.292;8.710;2022-12-18T15:44:03;24.33;;;9.60;;
45358;SDS011;31096;49.292;8.710;2022-12-18T15:49:12;21.87;;;10.13;;
45358;SDS011;31096;49.292;8.710;2022-12-18T15:54:04;24.38;;;11.20;;
45358;SDS011;31096;49.292;8.710;2022-12-18T15:58:56;23.00;;;9.60;;
45358;SDS011;31096;49.292;8.710;2022-12-18T16:03:47;25.23;;;9.20;;
45358;SDS011;31096;49.292;8.710;2022-12-18T16:08:38;19.77;;;9.00;;
45358;SDS011;31096;49.292;8.710;2022-12-18T16:13:29;21.27;;;9.00;;
45358;SDS011;31096;49.292;8.710;2022-12-18T16:18:19;27.63;;;11.98;;
45358;SDS011;31096;49.292;8.710;2022-12-18T16:23:10;26.33;;;11.80;;
45358;SDS011;31096;49.292;8.710;2022-12-18T16:28:01;26.60;;;11.70;;
45358;SDS011;31096;49.292;8.710;2022-12-18T16:32:51;27.87;;;11.03;;
45358;SDS011;31096;49.292;8.710;2022-12-18T16:37:42;25.73;;;9.60;;
45358;SDS011;31096;49.292;8.710;2022-12-18T16:42:33;26.27;;;11.57;;
45358;SDS011;31096;49.292;8.710;2022-12-18T16:47:24;22.95;;;8.82;;
45358;SDS011;31096;49.292;8.710;2022-12-18T16:52:15;26.37;;;10.87;;
45358;SDS011;31096;49.292;8.710;2022-12-18T16:57:06;19.05;;;9.00;;
45358;SDS011;31096;49.292;8.710;2022-12-18T17:01:58;25.83;;;11.10;;
45358;SDS011;31096;49.292;8.710;2022-12-18T17:06:49;26.17;;;10.90;;
45358;SDS011;31096;49.292;8.710;2022-12-18T17:11:43;28.93;;;12.27;;
45358;SDS011;31096;49.292;8.710;2022-12-18T17:16:33;26.25;;;11.38;;
45358;SDS011;31096;49.292;8.710;2022-12-18T17:21:24;24.70;;;10.63;;
45358;SDS011;31096;49.292;8.710;2022-12-18T17:26:15;23.08;;;9.77;;
45358;SDS011;31096;49.292;8.710;2022-12-18T17:31:10;29.97;;;11.17;;
45358;SDS011;31096;49.292;8.710;2022-12-18T17:36:03;23.05;;;10.25;;
45358;SDS011;31096;49.292;8.710;2022-12-18T17:40:58;18.67;;;8.67;;
45358;SDS011;31096;49.292;8.710;2022-12-18T17:45:53;20.48;;;8.73;;
45358;SDS011;31096;49.292;8.710;2022-12-18T17:50:44;20.90;;;8.23;;
45358;SDS011;31096;49.292;8.710;2022-12-18T17:55:34;25.70;;;11.10;;
45358;SDS011;31096;49.292;8.710;2022-12-18T18:00:25;23.77;;;9.03;;
45358;SDS011;31096;49.292;8.710;2022-12-18T18:05:16;22.00;;;9.87;;
45358;SDS011;31096;49.292;8.710;2022-12-18T18:10:07;26.63;;;11.65;;
45358;SDS011;31096;49.292;8.710;2022-12-18T18:14:58;27.50;;;10.75;;
45358;SDS011;31096;49.292;8.710;2022-12-18T18:19:49;26.38;;;10.90;;
45358;SDS011;31096;49.292;8.710;2022-12-18T18:24:39;21.90;;;10.63;;
45358;SDS011;31096;49.292;8.710;2022-12-18T18:29:32;30.63;;;12.68;;
45358;SDS011;31096;49.292;8.710;2022-12-18T18:34:24;30.33;;;12.77;;
45358;SDS011;31096;49.292;8.710;2022-12-18T18:39:17;27.88;;;11.07;;
45358;SDS011;31096;49.292;8.710;2022-12-18T18:44:08;27.77;;;11.77;;
45358;SDS011;31096;49.292;8.710;2022-12-18T18:48:59;19.45;;;9.07;;
45358;SDS011;31096;49.292;8.710;2022-12-18T18:53:51;25.57;;;11.03;;
45358;SDS011;31096;49.292;8.710;2022-12-18T18:58:42;23.58;;;10.68;;
45358;SDS011;31096;49.292;8.710;2022-12-18T19:03:34;29.03;;;12.20;;
45358;SDS011;31096;49.292;8.710;2022-12-18T19:08:25;29.65;;;14.30;;
45358;SDS011;31096;49.292;8.710;2022-12-18T19:13:19;22.75;;;9.30;;
45358;SDS011;31096;49.292;8.710;2022-12-18T19:18:11;25.60;;;11.40;;
45358;SDS011;31096;49.292;8.710;2022-12-18T19:23:02;23.80;;;10.23;;
45358;SDS011;31096;49.292;8.710;2022-12-18T19:27:52;28.23;;;11.32;;
45358;SDS011;31096;49.292;8.710;2022-12-18T19:32:43;24.40;;;9.83;;
45358;SDS011;31096;49.292;8.710;2022-12-18T19:37:34;28.13;;;12.35;;
45358;SDS011;31096;49.292;8.710;2022-12-18T19:42:24;20.17;;;10.73;;
45358;SDS011;31096;49.292;8.710;2022-12-18T19:47:16;26.95;;;11.70;;
45358;SDS011;31096;49.292;8.710;2022-12-18T19:52:07;22.20;;;9.27;;
45358;SDS011;31096;49.292;8.710;2022-12-18T19:56:57;22.80;;;9.80;;
45358;SDS011;31096;49.292;8.710;2022-12-18T20:01:48;21.52;;;9.13;;
45358;SDS011;31096;49.292;8.710;2022-12-18T20:06:46;21.63;;;7.45;;
45358;SDS011;31096;49.292;8.710;2022-12-18T20:11:39;23.63;;;9.65;;
45358;SDS011;31096;49.292;8.710;2022-12-18T20:16:30;22.50;;;9.27;;
45358;SDS011;31096;49.292;8.710;2022-12-18T20:21:21;29.85;;;11.48;;
45358;SDS011;31096;49.292;8.710;2022-12-18T20:26:14;23.27;;;9.20;;
45358;SDS011;31096;49.292;8.710;2022-12-18T20:31:10;26.48;;;11.50;;
45358;SDS011;31096;49.292;8.710;2022-12-18T20:36:02;24.15;;;9.38;;
45358;SDS011;31096;49.292;8.710;2022-12-18T20:40:58;21.67;;;10.70;;
45358;SDS011;31096;49.292;8.710;2022-12-18T20:45:58;23.13;;;10.43;;
45358;SDS011;31096;49.292;8.710;2022-12-18T20:50:58;21.00;;;9.57;;
45358;SDS011;31096;49.292;8.710;2022-12-18T20:56:18;21.27;;;10.05;;
45358;SDS011;31096;49.292;8.710;2022-12-18T21:01:11;23.38;;;9.73;;
45358;SDS011;31096;49.292;8.710;2022-12-18T21:06:06;17.90;;;7.10;;
45358;SDS011;31096;49.292;8.710;2022-12-18T21:11:14;17.52;;;8.15;;
45358;SDS011;31096;49.292;8.710;2022-12-18T21:16:28;21.40;;;10.00;;
45358;SDS011;31096;49.292;8.710;2022-12-18T21:21:18;17.95;;;8.88;;
45358;SDS011;31096;49.292;8.710;2022-12-18T21:26:20;22.70;;;10.13;;
45358;SDS011;31096;49.292;8.710;2022-12-18T21:31:13;20.75;;;8.75;;
45358;SDS011;31096;49.292;8.710;2022-12-18T21:36:04;19.75;;;8.18;;
45358;SDS011;31096;49.292;8.710;2022-12-18T21:40:56;21.38;;;9.43;;
45358;SDS011;31096;49.292;8.710;2022-12-18T21:45:47;22.90;;;9.73;;
45358;SDS011;31096;49.292;8.710;2022-12-18T21:50:37;20.67;;;9.82;;
45358;SDS011;31096;49.292;8.710;2022-12-18T21:55:28;23.67;;;10.80;;
45358;SDS011;31096;49.292;8.710;2022-12-18T22:00:19;20.13;;;9.30;;
45358;SDS011;31096;49.292;8.710;2022-12-18T22:05:09;23.50;;;10.13;;
45358;SDS011;31096;49.292;8.710;2022-12-18T22:10:00;24.67;;;10.67;;
45358;SDS011;31096;49.292;8.710;2022-12-18T22:14:51;25.60;;;11.43;;
45358;SDS011;31096;49.292;8.710;2022-12-18T22:19:41;24.73;;;11.45;;
45358;SDS011;31096;49.292;8.710;2022-12-18T22:24:32;24.20;;;9.80;;
45358;SDS011;31096;49.292;8.710;2022-12-18T22:29:23;17.17;;;8.83;;
45358;SDS011;31096;49.292;8.710;2022-12-18T22:34:33;22.63;;;8.52;;
45358;SDS011;31096;49.292;8.710;2022-12-18T22:39:24;18.97;;;8.97;;
45358;SDS011;31096;49.292;8.710;2022-12-18T22:44:17;23.00;;;9.15;;
45358;SDS011;31096;49.292;8.710;2022-12-18T22:49:08;22.55;;;10.60;;
45358;SDS011;31096;49.292;8.710;2022-12-18T22:54:03;17.40;;;8.30;;
45358;SDS011;31096;49.292;8.710;2022-12-18T22:58:54;22.33;;;9.77;;
45358;SDS011;31096;49.292;8.710;2022-12-18T23:03:44;22.00;;;9.17;;
45358;SDS011;31096;49.292;8.710;2022-12-18T23:08:36;24.38;;;10.93;;
45358;SDS011;31096;49.292;8.710;2022-12-18T23:13:26;25.53;;;10.40;;
45358;SDS011;31096;49.292;8.710;2022-12-18T23:18:17;23.55;;;10.95;;
45358;SDS011;31096;49.292;8.710;2022-12-18T23:23:08;23.13;;;10.80;;
45358;SDS011;31096;49.292;8.710;2022-12-18T23:27:59;22.23;;;9.60;;
45358;SDS011;31096;49.292;8.710;2022-12-18T23:32:50;19.90;;;9.70;;
45358;SDS011;31096;49.292;8.710;2022-12-18T23:37:40;22.00;;;9.37;;
45358;SDS011;31096;49.292;8.710;2022-12-18T23:42:31;28.00;;;11.33;;
45358;SDS011;31096;49.292;8.710;2022-12-18T23:47:22;25.10;;;10.68;;
45358;SDS011;31096;49.292;8.710;2022-12-18T23:52:12;24.33;;;10.27;;
45358;SDS011;31096;49.292;8.710;2022-12-18T23:57:03;19.33;;;8.37;;
